Terminal Aerodrome Forecast
Issued by NWS

Home | Current Version | Previous Version | Text Only | Print | Product List | Glossary On
Versions: 1 2 3 4 5 6 7 8 9 10 11 12 13 14 15 16
000
FTUS43 KMQT 291720
TAFCMX
TAF
KCMX 291720Z 2918/3018 21015KT 6SM -SHSN SCT015 OVC025
     FM291900 24013G23KT 3SM -SHRASN OVC015
     FM292100 27022G35KT 6SM -SHRASN OVC025
     FM300000 30020G30KT P6SM VCSH OVC025
     FM300400 29017G27KT P6SM BKN035
     FM301200 28010KT P6SM SCT035=

USA.gov is the U.S. government's official web portal to all federal, state and local government web resources and services.